Time;durP1;ratioP1;P1;durP2;ratioP2;P2;SDS_P1;SDS_P2;PMS_P1;PMS_P2;Temp;Humidity;BMP_temperature;BMP_pressure;BME280_temperature;BME280_humidity;BME280_pressure;Samples;Min_cycle;Max_cycle;Signal;HPM_P1;HPM_P2
2023/02/28 00:00:12;;;;;;;8.13;4.20;;;;;;;;;;5064522;28;20247;-67
2023/02/28 00:02:39;;;;;;;7.03;3.60;;;;;;;;;;5049266;28;20194;-67
2023/02/28 00:05:06;;;;;;;10.93;3.83;;;;;;;;;;5061269;28;20657;-68
2023/02/28 00:07:32;;;;;;;6.13;3.40;;;;;;;;;;5055083;28;20248;-68
2023/02/28 00:09:57;;;;;;;8.13;3.90;;;;;;;;;;5064369;28;20216;-68
2023/02/28 00:12:23;;;;;;;6.07;3.47;;;;;;;;;;5051359;28;20189;-68
2023/02/28 00:14:49;;;;;;;8.37;3.57;;;;;;;;;;5051904;28;20193;-68
2023/02/28 00:17:17;;;;;;;7.00;3.50;;;;;;;;;;5062680;28;20192;-67
2023/02/28 00:19:43;;;;;;;6.17;3.67;;;;;;;;;;5071867;28;20191;-67
2023/02/28 00:22:09;;;;;;;6.83;3.40;;;;;;;;;;5055491;28;20192;-67
2023/02/28 00:24:34;;;;;;;10.50;3.87;;;;;;;;;;5055045;28;20210;-67
2023/02/28 00:26:59;;;;;;;7.33;4.13;;;;;;;;;;5049484;28;20198;-66
2023/02/28 00:29:25;;;;;;;7.77;4.10;;;;;;;;;;5059790;28;20228;-67
2023/02/28 00:31:50;;;;;;;9.07;3.50;;;;;;;;;;5052723;28;20255;-67
2023/02/28 00:34:15;;;;;;;10.10;3.30;;;;;;;;;;5070889;28;20644;-66
2023/02/28 00:36:45;;;;;;;7.87;3.70;;;;;;;;;;5065227;28;20217;-66
2023/02/28 00:39:11;;;;;;;7.77;3.83;;;;;;;;;;5056879;28;20220;-66
2023/02/28 00:41:36;;;;;;;8.60;4.30;;;;;;;;;;5049412;28;20623;-66
2023/02/28 00:44:01;;;;;;;8.13;3.87;;;;;;;;;;5056226;28;20185;-66
2023/02/28 00:46:27;;;;;;;8.03;4.10;;;;;;;;;;5062366;28;20268;-67
2023/02/28 00:48:52;;;;;;;10.10;3.80;;;;;;;;;;5051556;28;20285;-67
2023/02/28 00:51:17;;;;;;;7.57;3.77;;;;;;;;;;5059876;28;20203;-66
2023/02/28 00:53:43;;;;;;;6.30;3.30;;;;;;;;;;5068393;28;20188;-67
2023/02/28 00:56:08;;;;;;;7.07;3.77;;;;;;;;;;5056164;28;20188;-67
2023/02/28 00:58:33;;;;;;;5.83;3.80;;;;;;;;;;5064569;28;20614;-66
2023/02/28 01:00:59;;;;;;;5.73;3.43;;;;;;;;;;5050290;28;20262;-66
2023/02/28 01:03:24;;;;;;;7.83;4.00;;;;;;;;;;5050936;28;20264;-66
2023/02/28 01:05:50;;;;;;;8.47;3.90;;;;;;;;;;5061843;28;20660;-67
2023/02/28 01:08:16;;;;;;;9.23;4.13;;;;;;;;;;5058732;28;20201;-67
2023/02/28 01:10:41;;;;;;;7.90;3.87;;;;;;;;;;5054191;28;20254;-66
2023/02/28 01:13:07;;;;;;;5.70;3.60;;;;;;;;;;5059014;28;20189;-66
2023/02/28 01:15:32;;;;;;;7.40;3.60;;;;;;;;;;5055097;28;20512;-67
2023/02/28 01:17:58;;;;;;;9.03;3.90;;;;;;;;;;5054405;28;20194;-67
2023/02/28 01:20:24;;;;;;;6.73;3.53;;;;;;;;;;5066860;28;20192;-67
2023/02/28 01:22:49;;;;;;;7.60;3.53;;;;;;;;;;5055133;28;20276;-66
2023/02/28 01:25:14;;;;;;;6.87;3.73;;;;;;;;;;5063504;28;20863;-68
2023/02/28 01:27:40;;;;;;;12.10;3.97;;;;;;;;;;5063813;28;20216;-66
2023/02/28 01:30:07;;;;;;;9.07;4.13;;;;;;;;;;5063805;28;20358;-66
2023/02/28 01:32:33;;;;;;;8.60;3.80;;;;;;;;;;5064509;28;20205;-66
2023/02/28 01:34:58;;;;;;;9.80;4.40;;;;;;;;;;5059796;28;20488;-67
2023/02/28 01:37:24;;;;;;;6.93;3.97;;;;;;;;;;5069698;28;20521;-67
2023/02/28 01:39:49;;;;;;;5.70;3.53;;;;;;;;;;5067833;28;20197;-66
2023/02/28 01:42:14;;;;;;;8.77;4.63;;;;;;;;;;5055538;28;20259;-66
2023/02/28 01:45:03;;;;;;;11.07;4.03;;;;;;;;;;5058465;28;20201;-66
2023/02/28 01:47:38;;;;;;;9.40;3.83;;;;;;;;;;5051166;28;20649;-66
2023/02/28 01:50:09;;;;;;;5.80;4.00;;;;;;;;;;5049374;28;20515;-66
2023/02/28 01:52:35;;;;;;;6.27;3.60;;;;;;;;;;5049782;28;20272;-66
2023/02/28 01:55:04;;;;;;;6.63;3.93;;;;;;;;;;5060221;28;20284;-66
2023/02/28 01:57:37;;;;;;;9.87;4.03;;;;;;;;;;5061212;28;20259;-67
2023/02/28 02:00:24;;;;;;;7.43;3.90;;;;;;;;;;5060096;28;20209;-67
2023/02/28 02:02:55;;;;;;;7.00;3.90;;;;;;;;;;5059271;28;20603;-66
2023/02/28 02:05:23;;;;;;;8.87;4.20;;;;;;;;;;5068300;28;20188;-66
2023/02/28 02:07:53;;;;;;;6.70;4.00;;;;;;;;;;5070553;28;20608;-67
2023/02/28 02:10:23;;;;;;;5.93;3.80;;;;;;;;;;5061152;28;20192;-67
2023/02/28 02:13:20;;;;;;;7.70;4.10;;;;;;;;;;5061072;28;20524;-67
2023/02/28 02:16:00;;;;;;;7.10;4.07;;;;;;;;;;5048783;28;20197;-66
2023/02/28 02:18:46;;;;;;;9.63;4.50;;;;;;;;;;5065682;28;20196;-66
2023/02/28 02:21:17;;;;;;;7.17;3.93;;;;;;;;;;5057434;28;20197;-66
2023/02/28 02:24:01;;;;;;;8.30;4.60;;;;;;;;;;5052582;28;20219;-67
2023/02/28 02:27:01;;;;;;;10.03;4.47;;;;;;;;;;5060099;28;20200;-66
2023/02/28 02:29:57;;;;;;;9.97;4.47;;;;;;;;;;5052483;28;20914;-66
2023/02/28 02:33:00;;;;;;;8.97;4.10;;;;;;;;;;5067503;28;20220;-67
2023/02/28 02:35:37;;;;;;;7.80;4.23;;;;;;;;;;5060272;28;20209;-67
2023/02/28 02:38:31;;;;;;;9.53;4.43;;;;;;;;;;5049239;28;20185;-66
2023/02/28 02:41:13;;;;;;;7.67;4.00;;;;;;;;;;5057856;28;20189;-66
2023/02/28 02:43:46;;;;;;;8.77;4.73;;;;;;;;;;5057796;28;20664;-67
2023/02/28 02:46:23;;;;;;;11.60;4.33;;;;;;;;;;5062949;28;20193;-66
2023/02/28 02:48:52;;;;;;;9.63;4.37;;;;;;;;;;5052078;28;20318;-66
2023/02/28 02:51:21;;;;;;;8.20;4.07;;;;;;;;;;5049738;28;20200;-66
2023/02/28 02:54:17;;;;;;;7.77;4.07;;;;;;;;;;5058692;28;20197;-66
2023/02/28 02:56:46;;;;;;;6.27;4.30;;;;;;;;;;5055353;28;20620;-66
2023/02/28 02:59:20;;;;;;;6.33;4.27;;;;;;;;;;5049815;28;20185;-67
2023/02/28 03:01:55;;;;;;;8.47;4.17;;;;;;;;;;5052256;28;20638;-67
2023/02/28 03:04:24;;;;;;;7.50;4.57;;;;;;;;;;5065822;28;20591;-66
2023/02/28 03:06:54;;;;;;;7.63;4.43;;;;;;;;;;5076145;28;20467;-67
2023/02/28 03:09:21;;;;;;;7.57;4.43;;;;;;;;;;5069321;28;20201;-67
2023/02/28 03:11:48;;;;;;;8.17;4.23;;;;;;;;;;5052767;28;20270;-67
2023/02/28 03:14:28;;;;;;;8.30;4.20;;;;;;;;;;5062140;28;20189;-67
2023/02/28 03:17:18;;;;;;;7.90;4.70;;;;;;;;;;5055975;28;20199;-67
2023/02/28 03:19:52;;;;;;;7.13;4.07;;;;;;;;;;5061582;28;20196;-66
2023/02/28 03:22:31;;;;;;;8.27;4.10;;;;;;;;;;5055611;28;20241;-67
2023/02/28 03:25:21;;;;;;;7.43;4.47;;;;;;;;;;5065414;28;20307;-66
2023/02/28 03:28:28;;;;;;;9.67;5.03;;;;;;;;;;5065942;28;20205;-67
2023/02/28 03:31:08;;;;;;;7.40;4.70;;;;;;;;;;5053596;28;20258;-67
2023/02/28 03:33:57;;;;;;;7.60;4.60;;;;;;;;;;5055784;28;20185;-66
2023/02/28 03:36:29;;;;;;;9.80;4.83;;;;;;;;;;5053267;28;20181;-67
2023/02/28 03:39:01;;;;;;;7.23;4.50;;;;;;;;;;5066163;28;20196;-67
2023/02/28 03:41:36;;;;;;;7.33;4.70;;;;;;;;;;5054819;28;20189;-67
2023/02/28 03:44:15;;;;;;;7.37;4.10;;;;;;;;;;5061449;28;20188;-67
2023/02/28 03:46:45;;;;;;;9.57;5.30;;;;;;;;;;5056646;28;20250;-67
2023/02/28 03:49:19;;;;;;;9.70;4.80;;;;;;;;;;5065521;28;20656;-67
2023/02/28 03:51:46;;;;;;;10.23;4.80;;;;;;;;;;5057341;28;20587;-66
2023/02/28 03:54:17;;;;;;;7.93;5.30;;;;;;;;;;5047977;28;20403;-66
2023/02/28 03:56:52;;;;;;;6.80;4.93;;;;;;;;;;5054497;28;20583;-67
2023/02/28 03:59:37;;;;;;;10.30;4.50;;;;;;;;;;5048571;28;20201;-67
2023/02/28 04:02:02;;;;;;;9.23;5.00;;;;;;;;;;5052951;28;20295;-67
2023/02/28 04:04:28;;;;;;;9.60;4.27;;;;;;;;;;5058729;28;20273;-67
2023/02/28 04:07:05;;;;;;;8.13;4.50;;;;;;;;;;5064288;28;20220;-66
2023/02/28 04:09:30;;;;;;;10.03;4.83;;;;;;;;;;5070880;28;20295;-66
2023/02/28 04:11:56;;;;;;;8.60;5.00;;;;;;;;;;5064236;28;20295;-66
2023/02/28 04:14:21;;;;;;;8.57;4.57;;;;;;;;;;5059376;28;20189;-67
2023/02/28 04:16:47;;;;;;;8.23;4.80;;;;;;;;;;5065374;28;20637;-67
2023/02/28 04:19:14;;;;;;;9.53;4.93;;;;;;;;;;5070078;28;20332;-66
2023/02/28 04:21:49;;;;;;;13.30;4.90;;;;;;;;;;5056765;28;20193;-67
2023/02/28 04:24:23;;;;;;;8.93;4.97;;;;;;;;;;5062526;28;20185;-67
2023/02/28 04:26:54;;;;;;;9.17;4.77;;;;;;;;;;5061058;28;20192;-66
2023/02/28 04:29:27;;;;;;;11.53;4.90;;;;;;;;;;5061279;28;20286;-67
2023/02/28 04:31:53;;;;;;;12.67;4.97;;;;;;;;;;5054206;28;20220;-67
2023/02/28 04:34:20;;;;;;;9.87;4.83;;;;;;;;;;5055162;28;20236;-67
2023/02/28 04:36:48;;;;;;;8.67;5.20;;;;;;;;;;5052031;28;20240;-67
2023/02/28 04:39:15;;;;;;;7.90;4.73;;;;;;;;;;5057309;28;20178;-67
2023/02/28 04:41:40;;;;;;;13.53;5.00;;;;;;;;;;5063814;28;20220;-67
2023/02/28 04:44:05;;;;;;;10.67;5.27;;;;;;;;;;5059643;28;20221;-67
2023/02/28 04:46:31;;;;;;;7.57;5.07;;;;;;;;;;5059123;28;20189;-67
2023/02/28 04:48:56;;;;;;;9.07;5.57;;;;;;;;;;5062094;28;20284;-67
2023/02/28 04:51:22;;;;;;;11.33;4.80;;;;;;;;;;5069690;28;20196;-67
2023/02/28 04:53:48;;;;;;;8.80;5.40;;;;;;;;;;5060383;28;20314;-66
2023/02/28 04:56:16;;;;;;;8.63;5.37;;;;;;;;;;5051589;28;20673;-67
2023/02/28 04:58:42;;;;;;;6.57;4.67;;;;;;;;;;5054291;28;20256;-67
2023/02/28 05:01:18;;;;;;;8.77;4.63;;;;;;;;;;5058718;28;20205;-67
2023/02/28 05:03:44;;;;;;;9.97;4.93;;;;;;;;;;5054439;28;20220;-67
2023/02/28 05:06:11;;;;;;;8.20;5.00;;;;;;;;;;5059837;28;20696;-67
2023/02/28 05:08:36;;;;;;;7.60;5.20;;;;;;;;;;5054789;28;20289;-67
2023/02/28 05:11:03;;;;;;;9.87;5.33;;;;;;;;;;5057622;28;20657;-68
2023/02/28 05:13:28;;;;;;;11.97;5.67;;;;;;;;;;5053552;28;20220;-67
2023/02/28 05:15:54;;;;;;;6.43;4.13;;;;;;;;;;5050661;28;20221;-67
2023/02/28 05:18:19;;;;;;;8.77;5.43;;;;;;;;;;5066096;28;20538;-67
2023/02/28 05:20:45;;;;;;;10.33;5.43;;;;;;;;;;5050701;28;20238;-67
2023/02/28 05:23:12;;;;;;;7.43;4.50;;;;;;;;;;5051193;28;20257;-67
2023/02/28 05:25:38;;;;;;;8.17;4.77;;;;;;;;;;5054164;28;20554;-67
2023/02/28 05:28:04;;;;;;;12.90;5.60;;;;;;;;;;5054244;28;20213;-67
2023/02/28 05:30:31;;;;;;;11.40;5.40;;;;;;;;;;5053414;28;20347;-67
2023/02/28 05:32:57;;;;;;;8.73;5.67;;;;;;;;;;5054006;28;20189;-66
2023/02/28 05:35:23;;;;;;;12.00;5.47;;;;;;;;;;5052513;28;20220;-66
2023/02/28 05:37:48;;;;;;;8.87;5.63;;;;;;;;;;5053927;28;20181;-66
2023/02/28 05:40:14;;;;;;;8.77;5.33;;;;;;;;;;5055848;28;20230;-67
2023/02/28 05:42:40;;;;;;;8.57;5.37;;;;;;;;;;5052674;28;20228;-67
2023/02/28 05:45:06;;;;;;;11.07;5.53;;;;;;;;;;5052022;28;20844;-67
2023/02/28 05:47:32;;;;;;;9.80;5.97;;;;;;;;;;5055581;28;20204;-66
2023/02/28 05:49:57;;;;;;;9.77;5.77;;;;;;;;;;5063286;28;20803;-67
2023/02/28 05:52:23;;;;;;;11.37;5.90;;;;;;;;;;5055747;28;20194;-67
2023/02/28 05:54:48;;;;;;;9.60;6.10;;;;;;;;;;5060470;28;20188;-67
2023/02/28 05:57:14;;;;;;;10.07;5.73;;;;;;;;;;5052258;28;20263;-67
2023/02/28 05:59:40;;;;;;;9.47;5.20;;;;;;;;;;5063999;28;20270;-67
2023/02/28 06:02:11;;;;;;;8.13;5.47;;;;;;;;;;5054837;28;20636;-67
2023/02/28 06:04:37;;;;;;;11.07;5.43;;;;;;;;;;5055415;28;20280;-67
2023/02/28 06:07:03;;;;;;;9.80;5.60;;;;;;;;;;5065621;28;20268;-67
2023/02/28 06:09:28;;;;;;;8.00;5.43;;;;;;;;;;5062659;28;20221;-66
2023/02/28 06:11:54;;;;;;;11.07;5.50;;;;;;;;;;5058687;28;20188;-67
2023/02/28 06:14:20;;;;;;;11.57;5.83;;;;;;;;;;5059713;28;20177;-67
2023/02/28 06:16:46;;;;;;;12.13;6.97;;;;;;;;;;5061703;28;20201;-67
2023/02/28 06:19:11;;;;;;;7.87;5.40;;;;;;;;;;5066840;28;20267;-67
2023/02/28 06:21:37;;;;;;;10.57;5.90;;;;;;;;;;5053649;28;20232;-67
2023/02/28 06:24:03;;;;;;;7.23;4.97;;;;;;;;;;5049242;28;20194;-66
2023/02/28 06:26:28;;;;;;;9.53;6.30;;;;;;;;;;5053653;28;20193;-66
2023/02/28 06:28:54;;;;;;;9.23;5.93;;;;;;;;;;5067176;28;20664;-66
2023/02/28 06:31:19;;;;;;;10.53;6.07;;;;;;;;;;5056457;28;20232;-67
2023/02/28 06:33:46;;;;;;;7.60;5.70;;;;;;;;;;5054571;28;20203;-66
2023/02/28 06:36:13;;;;;;;9.40;5.87;;;;;;;;;;5057714;28;20189;-67
2023/02/28 06:38:39;;;;;;;12.50;6.57;;;;;;;;;;5053404;28;20193;-67
2023/02/28 06:41:05;;;;;;;9.07;5.97;;;;;;;;;;5054596;28;20310;-67
2023/02/28 06:43:33;;;;;;;9.47;6.50;;;;;;;;;;5055166;28;20194;-67
2023/02/28 06:46:00;;;;;;;11.07;5.93;;;;;;;;;;5047867;28;20193;-66
2023/02/28 06:48:27;;;;;;;9.50;6.03;;;;;;;;;;5052143;28;20669;-66
2023/02/28 06:51:01;;;;;;;8.87;5.93;;;;;;;;;;5060866;28;20241;-66
2023/02/28 06:53:26;;;;;;;9.27;5.87;;;;;;;;;;5047595;28;20237;-66
2023/02/28 06:55:51;;;;;;;9.37;5.80;;;;;;;;;;5049854;28;20635;-66
2023/02/28 06:58:20;;;;;;;11.03;5.80;;;;;;;;;;5058711;28;20201;-67
2023/02/28 07:00:46;;;;;;;7.83;5.60;;;;;;;;;;5064725;28;20215;-67
2023/02/28 07:03:12;;;;;;;13.10;6.13;;;;;;;;;;5049201;28;20334;-67
2023/02/28 07:05:39;;;;;;;8.03;5.83;;;;;;;;;;5051048;28;20203;-66
2023/02/28 07:08:05;;;;;;;9.50;5.17;;;;;;;;;;5051396;28;20217;-66
2023/02/28 07:10:32;;;;;;;12.17;5.83;;;;;;;;;;5054205;28;20541;-66
2023/02/28 07:12:58;;;;;;;13.17;6.33;;;;;;;;;;5054587;28;20185;-66
2023/02/28 07:15:23;;;;;;;10.17;5.47;;;;;;;;;;5053837;28;20201;-67
2023/02/28 07:17:48;;;;;;;11.27;5.40;;;;;;;;;;5050404;28;20193;-67
2023/02/28 07:20:14;;;;;;;9.77;5.10;;;;;;;;;;5055713;28;20273;-66
2023/02/28 07:22:39;;;;;;;9.87;5.57;;;;;;;;;;5049462;28;20217;-67
2023/02/28 07:25:06;;;;;;;8.93;5.73;;;;;;;;;;5057014;28;20659;-67
2023/02/28 07:27:31;;;;;;;9.10;5.57;;;;;;;;;;5053414;28;20193;-66
2023/02/28 07:29:57;;;;;;;8.50;5.57;;;;;;;;;;5049306;28;20539;-66
2023/02/28 07:32:22;;;;;;;8.97;5.50;;;;;;;;;;5052456;28;20541;-67
2023/02/28 07:34:48;;;;;;;11.30;4.87;;;;;;;;;;5039401;28;20224;-67
2023/02/28 07:37:14;;;;;;;8.37;4.70;;;;;;;;;;5059116;28;20234;-67
2023/02/28 07:39:42;;;;;;;8.23;4.57;;;;;;;;;;5051581;28;20204;-66
2023/02/28 07:42:10;;;;;;;11.00;5.07;;;;;;;;;;5062110;28;20185;-67
2023/02/28 07:44:39;;;;;;;5.57;4.33;;;;;;;;;;5059076;28;20237;-67
2023/02/28 07:47:08;;;;;;;6.87;4.10;;;;;;;;;;5064558;28;20181;-67
2023/02/28 07:49:37;;;;;;;10.40;4.50;;;;;;;;;;5055892;28;20197;-67
2023/02/28 07:52:04;;;;;;;7.97;4.40;;;;;;;;;;5050899;28;20185;-67
2023/02/28 07:54:30;;;;;;;6.67;3.40;;;;;;;;;;5055086;28;20194;-67
2023/02/28 07:56:55;;;;;;;5.80;2.70;;;;;;;;;;5053936;28;20180;-68
2023/02/28 07:59:21;;;;;;;6.20;3.00;;;;;;;;;;5057422;28;20694;-67
2023/02/28 08:01:46;;;;;;;5.20;2.33;;;;;;;;;;5059001;28;20366;-67
2023/02/28 08:04:11;;;;;;;5.67;1.90;;;;;;;;;;5058184;28;20637;-67
2023/02/28 08:06:37;;;;;;;4.43;2.03;;;;;;;;;;5055019;28;20201;-67
2023/02/28 08:09:02;;;;;;;2.40;1.80;;;;;;;;;;5051535;28;20225;-67
2023/02/28 08:11:28;;;;;;;4.53;1.87;;;;;;;;;;5054925;28;20196;-67
2023/02/28 08:13:54;;;;;;;2.47;1.20;;;;;;;;;;5054204;28;20193;-66
2023/02/28 08:16:21;;;;;;;2.37;1.53;;;;;;;;;;5050035;28;20261;-66
2023/02/28 08:18:56;;;;;;;3.07;1.50;;;;;;;;;;5054933;28;20670;-67
2023/02/28 08:21:22;;;;;;;3.33;1.50;;;;;;;;;;5051456;28;20196;-67
2023/02/28 08:23:48;;;;;;;4.47;1.60;;;;;;;;;;5050209;28;20567;-67
2023/02/28 08:26:14;;;;;;;2.50;1.60;;;;;;;;;;5050039;28;20239;-67
2023/02/28 08:28:39;;;;;;;4.43;1.50;;;;;;;;;;5054614;28;20204;-67
2023/02/28 08:31:14;;;;;;;2.50;1.30;;;;;;;;;;5057249;28;20224;-66
2023/02/28 08:33:40;;;;;;;3.07;1.40;;;;;;;;;;5055830;28;20571;-67
2023/02/28 08:36:08;;;;;;;1.93;1.20;;;;;;;;;;5057070;28;20185;-67
2023/02/28 08:38:35;;;;;;;2.70;1.17;;;;;;;;;;5051364;28;20655;-67
2023/02/28 08:41:03;;;;;;;2.47;1.40;;;;;;;;;;5055999;28;20192;-66
2023/02/28 08:43:28;;;;;;;2.70;1.43;;;;;;;;;;5054487;28;20181;-67
2023/02/28 08:45:58;;;;;;;5.17;2.00;;;;;;;;;;5060341;28;20506;-66
2023/02/28 08:48:25;;;;;;;10.13;4.50;;;;;;;;;;5051063;28;20225;-66
2023/02/28 08:50:59;;;;;;;11.77;5.70;;;;;;;;;;5051412;28;20676;-66
2023/02/28 08:53:24;;;;;;;12.03;5.87;;;;;;;;;;5049506;28;20185;-66
2023/02/28 08:56:01;;;;;;;7.53;4.10;;;;;;;;;;5055100;28;20204;-66
2023/02/28 08:58:27;;;;;;;1.63;1.27;;;;;;;;;;5050384;28;20314;-67
2023/02/28 09:00:53;;;;;;;1.97;1.00;;;;;;;;;;5051124;28;20624;-67
2023/02/28 09:03:18;;;;;;;2.20;1.10;;;;;;;;;;5039321;28;20273;-66
2023/02/28 09:05:58;;;;;;;2.10;1.10;;;;;;;;;;5054058;28;20402;-67
2023/02/28 09:08:25;;;;;;;2.57;0.80;;;;;;;;;;5052841;28;20213;-67
2023/02/28 09:10:51;;;;;;;2.13;1.17;;;;;;;;;;5055846;28;20216;-67
2023/02/28 09:13:17;;;;;;;2.10;0.97;;;;;;;;;;5054903;28;20181;-67
2023/02/28 09:15:43;;;;;;;2.73;0.80;;;;;;;;;;5054803;28;20628;-66
2023/02/28 09:18:08;;;;;;;0.77;0.73;;;;;;;;;;5053365;28;20296;-66
2023/02/28 09:20:34;;;;;;;1.10;0.63;;;;;;;;;;5052920;28;20612;-66
2023/02/28 09:22:59;;;;;;;1.13;0.70;;;;;;;;;;5056616;28;20230;-66
2023/02/28 09:25:25;;;;;;;1.23;0.70;;;;;;;;;;5052661;28;20186;-66
2023/02/28 09:27:50;;;;;;;0.93;0.63;;;;;;;;;;5052303;28;20338;-67
2023/02/28 09:30:16;;;;;;;2.33;0.70;;;;;;;;;;5049203;28;20232;-66
2023/02/28 09:32:41;;;;;;;1.70;0.70;;;;;;;;;;5053203;28;20597;-66
2023/02/28 09:35:12;;;;;;;1.00;0.80;;;;;;;;;;5053216;28;20284;-66
2023/02/28 09:37:38;;;;;;;2.97;0.63;;;;;;;;;;5054826;28;20186;-66
2023/02/28 09:40:04;;;;;;;1.63;0.73;;;;;;;;;;5050953;28;20597;-66
2023/02/28 09:42:33;;;;;;;0.87;0.60;;;;;;;;;;5054889;28;20255;-66
2023/02/28 09:45:01;;;;;;;0.87;0.70;;;;;;;;;;5053463;28;20589;-66
2023/02/28 09:47:44;;;;;;;1.37;0.83;;;;;;;;;;5055113;28;20539;-66
2023/02/28 09:50:28;;;;;;;3.40;1.00;;;;;;;;;;5049870;28;20181;-66
2023/02/28 09:52:54;;;;;;;2.13;1.10;;;;;;;;;;5053939;28;20211;-66
2023/02/28 09:55:33;;;;;;;1.20;0.70;;;;;;;;;;5054782;28;20189;-66
2023/02/28 09:57:59;;;;;;;2.17;0.50;;;;;;;;;;5059070;28;20384;-66
2023/02/28 10:00:33;;;;;;;2.77;1.20;;;;;;;;;;5053842;28;20806;-66
2023/02/28 10:03:30;;;;;;;3.20;0.90;;;;;;;;;;5054733;28;20203;-66
2023/02/28 10:06:11;;;;;;;1.77;0.97;;;;;;;;;;5052806;28;20189;-66
2023/02/28 10:08:47;;;;;;;2.87;0.90;;;;;;;;;;5057655;28;20201;-66
2023/02/28 10:11:16;;;;;;;1.43;0.90;;;;;;;;;;5052288;28;20197;-66
2023/02/28 10:14:15;;;;;;;2.93;1.17;;;;;;;;;;5053149;28;20224;-66
2023/02/28 10:16:41;;;;;;;1.53;0.70;;;;;;;;;;5050034;28;20276;-66
2023/02/28 10:19:21;;;;;;;2.77;0.90;;;;;;;;;;5053690;28;20241;-66
2023/02/28 10:21:58;;;;;;;2.83;0.60;;;;;;;;;;5051582;28;20181;-66
2023/02/28 10:24:43;;;;;;;1.07;0.60;;;;;;;;;;5050126;28;20676;-66
2023/02/28 10:27:18;;;;;;;2.37;0.90;;;;;;;;;;5052878;28;20616;-67
2023/02/28 10:29:52;;;;;;;2.77;0.60;;;;;;;;;;5052367;28;20228;-67
2023/02/28 10:32:20;;;;;;;2.07;0.90;;;;;;;;;;5050872;28;20189;-67
2023/02/28 10:35:09;;;;;;;0.93;0.70;;;;;;;;;;5059183;28;20193;-67
2023/02/28 10:37:38;;;;;;;1.33;0.60;;;;;;;;;;5061839;28;20479;-67
2023/02/28 10:40:25;;;;;;;1.57;0.70;;;;;;;;;;5056089;28;20177;-68
2023/02/28 10:43:17;;;;;;;2.00;0.70;;;;;;;;;;5048886;28;20272;-68
2023/02/28 10:45:56;;;;;;;2.07;0.90;;;;;;;;;;5053734;28;20671;-68
2023/02/28 10:48:21;;;;;;;1.53;0.83;;;;;;;;;;5052076;28;20649;-68
2023/02/28 10:50:47;;;;;;;1.87;0.80;;;;;;;;;;5052870;28;20227;-67
2023/02/28 10:53:15;;;;;;;2.87;0.90;;;;;;;;;;5047452;28;20187;-67
2023/02/28 10:55:41;;;;;;;2.03;0.80;;;;;;;;;;5051627;28;20197;-67
2023/02/28 10:58:22;;;;;;;3.03;1.17;;;;;;;;;;5050674;28;20186;-67
2023/02/28 11:00:48;;;;;;;1.60;0.80;;;;;;;;;;5049398;28;20513;-68
2023/02/28 11:03:32;;;;;;;1.83;0.70;;;;;;;;;;5051767;28;20235;-67
2023/02/28 11:06:03;;;;;;;2.27;0.97;;;;;;;;;;5051316;28;20203;-67
2023/02/28 11:08:28;;;;;;;1.70;0.87;;;;;;;;;;5053294;28;20748;-67
2023/02/28 11:11:05;;;;;;;1.87;1.00;;;;;;;;;;5060601;28;20211;-67
2023/02/28 11:13:37;;;;;;;4.47;1.40;;;;;;;;;;5060226;28;20181;-67
2023/02/28 11:16:08;;;;;;;2.00;1.10;;;;;;;;;;5055910;28;20181;-67
2023/02/28 11:18:39;;;;;;;3.73;1.10;;;;;;;;;;5060436;28;20667;-67
2023/02/28 11:21:05;;;;;;;1.23;1.10;;;;;;;;;;5056062;28;20252;-67
2023/02/28 11:23:34;;;;;;;1.43;1.10;;;;;;;;;;5055392;28;20319;-67
2023/02/28 11:26:04;;;;;;;3.07;1.23;;;;;;;;;;5053083;28;20193;-67
2023/02/28 11:28:36;;;;;;;3.00;1.17;;;;;;;;;;5057314;28;20304;-67
2023/02/28 11:31:16;;;;;;;1.37;0.90;;;;;;;;;;5056080;28;20228;-68
2023/02/28 11:33:41;;;;;;;2.53;1.20;;;;;;;;;;5068289;28;20258;-67
2023/02/28 11:36:15;;;;;;;1.90;1.20;;;;;;;;;;5070365;28;20197;-68
2023/02/28 11:38:42;;;;;;;0.90;0.80;;;;;;;;;;5067860;28;20188;-68
2023/02/28 11:41:42;;;;;;;2.23;0.90;;;;;;;;;;5064651;28;20294;-67
2023/02/28 11:44:34;;;;;;;3.57;0.90;;;;;;;;;;5044307;28;20268;-67
2023/02/28 11:47:22;;;;;;;2.20;1.30;;;;;;;;;;5065982;28;20197;-67
2023/02/28 11:50:18;;;;;;;3.67;1.20;;;;;;;;;;5069490;28;20220;-67
2023/02/28 11:53:03;;;;;;;2.03;1.03;;;;;;;;;;5055787;28;20496;-67
2023/02/28 11:55:37;;;;;;;0.83;0.80;;;;;;;;;;5058753;28;20180;-67
2023/02/28 11:58:21;;;;;;;1.07;0.80;;;;;;;;;;5064290;28;20240;-68
2023/02/28 12:01:00;;;;;;;4.10;0.93;;;;;;;;;;5069584;28;20325;-67
2023/02/28 12:04:00;;;;;;;2.20;0.97;;;;;;;;;;5055403;28;20255;-67
2023/02/28 12:06:36;;;;;;;1.03;0.80;;;;;;;;;;5064408;28;20647;-67
2023/02/28 12:09:20;;;;;;;1.20;0.77;;;;;;;;;;5052790;28;20283;-67
2023/02/28 12:11:57;;;;;;;1.20;0.80;;;;;;;;;;5052273;28;20193;-68
2023/02/28 12:14:38;;;;;;;1.23;0.70;;;;;;;;;;5052196;28;20560;-67
2023/02/28 12:17:26;;;;;;;2.20;0.80;;;;;;;;;;5053518;28;20180;-67
2023/02/28 12:20:21;;;;;;;4.13;1.10;;;;;;;;;;5051396;28;20178;-67
2023/02/28 12:23:17;;;;;;;3.17;0.90;;;;;;;;;;5056254;28;20241;-67
2023/02/28 12:26:02;;;;;;;2.70;1.07;;;;;;;;;;5071460;28;20196;-67
2023/02/28 12:28:33;;;;;;;2.73;0.90;;;;;;;;;;5057525;28;20209;-67
2023/02/28 12:31:08;;;;;;;2.40;1.00;;;;;;;;;;5056135;28;20587;-67
2023/02/28 12:33:43;;;;;;;1.33;0.83;;;;;;;;;;5055375;28;20181;-67
2023/02/28 12:36:15;;;;;;;1.00;0.80;;;;;;;;;;5054708;28;20204;-67
2023/02/28 12:38:47;;;;;;;1.00;0.80;;;;;;;;;;5059114;28;20212;-67
2023/02/28 12:41:18;;;;;;;1.43;0.80;;;;;;;;;;5059414;28;20193;-67
2023/02/28 12:43:53;;;;;;;1.97;0.77;;;;;;;;;;5068547;28;20644;-67
2023/02/28 12:46:28;;;;;;;2.83;0.87;;;;;;;;;;5050883;28;20285;-67
2023/02/28 12:48:58;;;;;;;0.90;0.70;;;;;;;;;;5056202;28;20240;-68
2023/02/28 12:51:25;;;;;;;2.73;0.90;;;;;;;;;;5067408;28;20189;-67
2023/02/28 12:54:17;;;;;;;2.57;1.03;;;;;;;;;;5061523;28;20576;-67
2023/02/28 12:57:03;;;;;;;3.00;0.87;;;;;;;;;;5067849;28;20223;-67
2023/02/28 12:59:34;;;;;;;1.53;0.80;;;;;;;;;;5062916;28;20194;-67
2023/02/28 13:02:11;;;;;;;7.30;1.20;;;;;;;;;;5049982;28;20580;-67
2023/02/28 13:04:59;;;;;;;1.57;0.90;;;;;;;;;;5062375;28;20717;-67
2023/02/28 13:08:04;;;;;;;1.20;0.80;;;;;;;;;;5062746;28;20457;-67
2023/02/28 13:10:41;;;;;;;1.83;1.20;;;;;;;;;;5065481;28;20197;-67
2023/02/28 13:13:15;;;;;;;2.13;0.90;;;;;;;;;;5050531;28;20686;-67
2023/02/28 13:15:44;;;;;;;1.03;0.90;;;;;;;;;;5066258;28;20595;-67
2023/02/28 13:18:29;;;;;;;2.40;0.90;;;;;;;;;;5052247;28;20212;-67
2023/02/28 13:20:55;;;;;;;1.13;0.77;;;;;;;;;;5057128;28;20275;-67
2023/02/28 13:23:39;;;;;;;2.90;0.90;;;;;;;;;;5057346;28;20268;-67
2023/02/28 13:26:04;;;;;;;1.63;0.97;;;;;;;;;;5052115;28;20623;-67
2023/02/28 13:28:48;;;;;;;1.80;0.90;;;;;;;;;;5065926;28;20252;-67
2023/02/28 13:31:15;;;;;;;1.80;0.93;;;;;;;;;;5058765;28;20255;-67
2023/02/28 13:33:46;;;;;;;2.17;1.23;;;;;;;;;;5063359;28;20675;-67
2023/02/28 13:36:17;;;;;;;1.27;0.90;;;;;;;;;;5058951;28;20231;-68
2023/02/28 13:38:52;;;;;;;1.53;1.07;;;;;;;;;;5069522;28;20191;-67
2023/02/28 13:41:35;;;;;;;2.50;0.87;;;;;;;;;;5054800;28;20535;-67
2023/02/28 13:44:07;;;;;;;1.37;0.90;;;;;;;;;;5058384;28;20235;-67
2023/02/28 13:46:35;;;;;;;1.93;0.90;;;;;;;;;;5051704;28;20795;-67
2023/02/28 13:49:24;;;;;;;2.47;1.10;;;;;;;;;;5053836;28;20224;-67
2023/02/28 13:52:16;;;;;;;1.57;0.97;;;;;;;;;;5053857;28;20189;-66
2023/02/28 13:55:00;;;;;;;1.13;0.90;;;;;;;;;;5051132;28;20750;-67
2023/02/28 13:57:52;;;;;;;1.83;1.00;;;;;;;;;;5052947;28;20266;-66
2023/02/28 14:00:23;;;;;;;2.90;1.00;;;;;;;;;;5052214;28;20617;-67
2023/02/28 14:03:05;;;;;;;3.57;0.80;;;;;;;;;;5052252;28;20208;-67
2023/02/28 14:05:33;;;;;;;2.63;1.17;;;;;;;;;;5049874;28;20416;-67
2023/02/28 14:08:13;;;;;;;1.53;0.93;;;;;;;;;;5057259;28;20204;-67
2023/02/28 14:10:50;;;;;;;1.30;0.97;;;;;;;;;;5051810;28;20568;-67
2023/02/28 14:13:25;;;;;;;1.30;0.90;;;;;;;;;;5051365;28;20189;-67
2023/02/28 14:15:59;;;;;;;2.60;0.97;;;;;;;;;;5053306;28;20256;-66
2023/02/28 14:18:34;;;;;;;2.80;0.97;;;;;;;;;;5051351;28;20207;-67
2023/02/28 14:21:25;;;;;;;1.87;1.10;;;;;;;;;;5049738;28;20185;-67
2023/02/28 14:24:21;;;;;;;1.47;1.00;;;;;;;;;;5053004;28;20196;-67
2023/02/28 14:27:14;;;;;;;1.93;0.97;;;;;;;;;;5053027;28;20551;-67
2023/02/28 14:30:10;;;;;;;1.10;0.87;;;;;;;;;;5053029;28;20241;-67
2023/02/28 14:32:35;;;;;;;0.73;0.70;;;;;;;;;;5050129;28;20206;-67
2023/02/28 14:35:27;;;;;;;1.23;0.70;;;;;;;;;;5055377;28;20188;-67
2023/02/28 14:37:53;;;;;;;2.30;1.13;;;;;;;;;;5053151;28;20187;-67
2023/02/28 14:40:30;;;;;;;3.03;1.20;;;;;;;;;;5054162;28;20616;-67
2023/02/28 14:42:59;;;;;;;2.47;0.93;;;;;;;;;;5048342;28;20184;-67
2023/02/28 14:45:28;;;;;;;1.40;0.80;;;;;;;;;;5047520;28;20181;-67
2023/02/28 14:47:54;;;;;;;2.10;0.90;;;;;;;;;;5049445;28;20195;-67
2023/02/28 14:50:27;;;;;;;3.30;1.10;;;;;;;;;;5049464;28;20279;-67
2023/02/28 14:52:54;;;;;;;1.37;1.00;;;;;;;;;;5045231;28;20200;-67
2023/02/28 14:55:26;;;;;;;1.50;0.80;;;;;;;;;;5051733;28;20184;-66
2023/02/28 14:57:57;;;;;;;1.73;0.80;;;;;;;;;;5046924;28;20209;-66
2023/02/28 15:00:29;;;;;;;1.30;0.90;;;;;;;;;;5049571;28;20205;-66
2023/02/28 15:02:56;;;;;;;1.03;0.80;;;;;;;;;;5048722;28;20678;-67
2023/02/28 15:05:33;;;;;;;1.30;0.90;;;;;;;;;;5052464;28;20192;-67
2023/02/28 15:08:10;;;;;;;1.57;0.90;;;;;;;;;;5050687;28;20185;-67